Grand Junction, CO

11:11 PM MST on March 01, 2015 (GMT -0700)
Montrose Regional | Change Station
CLOSE
Current Station
Airport
Location: Montrose,
Elevation: 5758 ft
Nearby Weather Stations

Elev 5758 ft 38.51 °N, 107.90 °W | Updated 18 minutes ago

Rain
Rain
33 °F
Feels Like 33 °F
N
0
Wind Variable Wind from North

Today
High -- | Low -- °F
--% Chance of Precip.
Yesterday
High -- | Low -- °F
Precip. -- in
6:46 AM 6:06 PM
Waxing Gibbous, 89% visible
Pressure 30.04 in
Visibility 4.0 miles
Clouds Few 9500 ft
Overcast 11000 ft
Dew Point 32 °F
Humidity 96%
Rainfall 0.03 in
Snow Depth Not available.
UV 0 out of 12
Pollen 1.80 out of 12
Air Quality Not available.
Flu Activity Not available.
METAR KMTJ 020553Z AUTO 00000KT 4SM BR FEW095 OVC110 01/00 A3005 RMK AO2 SLP170 60003 T00060000 10011 20006 58010

More Conditions Fewer Conditions

Pressure 30.04 in
Visibility 4.0 miles
Clouds Few 9500 ft
Overcast 11000 ft
Dew Point 32 °F
Humidity 96%
Rainfall 0.03 in
Snow Depth Not available.
UV 0 out of 12
Pollen 1.80 out of 12
Air Quality Not available.
Flu Activity Not available.
METAR KMTJ 020553Z AUTO 00000KT 4SM BR FEW095 OVC110 01/00 A3005 RMK AO2 SLP170 60003 T00060000 10011 20006 58010

More Conditions Fewer Conditions

10-Day Weather Forecast

Almanac

Astronomy

Mar. 01, 2015 Rise Set
Actual Time
Civil Twilight
Nautical Twilight
Astronomical Twilight
Moon
Length of Visible Light
Length of Day
Tomorrow will be .
, % of the Moon is Illuminated

Today's Extremes

State Highs State Lows

Community

WunderPhotos

Upload Photos

1,801,738 photos uploaded!

WunderBlogs® & News

Nearby

Air Quality

  Air Quality AQ Index Pollutant
Not available.

Snow Depth

Station Depth Elevation

Earthquake Activity

City Distance Mag. Time & Date
Minimum magnitude displayed is 2.5.

Coastal Water Temperatures

Place Temperature

Nearby Weather Stations